sensor_id;sensor_type;location;lat;lon;timestamp;pressure;altitude;pressure_sealevel;temperature;humidity
68075;BME280;54864;52.002;5.468;2023-08-06T00:00:56;100267.44;;;17.87;87.57
68075;BME280;54864;52.002;5.468;2023-08-06T00:01:58;100270.25;;;17.86;87.94
68075;BME280;54864;52.002;5.468;2023-08-06T00:02:59;100263.72;;;17.79;88.51
68075;BME280;54864;52.002;5.468;2023-08-06T00:04:00;100271.94;;;17.87;88.46
68075;BME280;54864;52.002;5.468;2023-08-06T00:05:01;100264.78;;;17.87;88.34
68075;BME280;54864;52.002;5.468;2023-08-06T00:06:06;100267.56;;;17.86;87.34
68075;BME280;54864;52.002;5.468;2023-08-06T00:07:06;100268.94;;;17.80;87.82
68075;BME280;54864;52.002;5.468;2023-08-06T00:08:08;100266.00;;;17.83;87.69
68075;BME280;54864;52.002;5.468;2023-08-06T00:09:09;100269.66;;;17.82;88.25
68075;BME280;54864;52.002;5.468;2023-08-06T00:10:11;100264.91;;;17.86;87.99
68075;BME280;54864;52.002;5.468;2023-08-06T00:11:12;100264.06;;;17.85;87.72
68075;BME280;54864;52.002;5.468;2023-08-06T00:12:15;100261.38;;;17.85;87.68
68075;BME280;54864;52.002;5.468;2023-08-06T00:13:19;100263.94;;;17.87;87.62
68075;BME280;54864;52.002;5.468;2023-08-06T00:14:20;100269.53;;;17.84;87.18
68075;BME280;54864;52.002;5.468;2023-08-06T00:15:22;100266.59;;;17.87;87.47
68075;BME280;54864;52.002;5.468;2023-08-06T00:16:22;100268.47;;;17.75;87.60
68075;BME280;54864;52.002;5.468;2023-08-06T00:17:24;100261.72;;;17.71;86.96
68075;BME280;54864;52.002;5.468;2023-08-06T00:18:25;100268.88;;;17.70;87.70
68075;BME280;54864;52.002;5.468;2023-08-06T00:19:27;100270.44;;;17.73;87.99
68075;BME280;54864;52.002;5.468;2023-08-06T00:20:27;100261.31;;;17.76;88.26
68075;BME280;54864;52.002;5.468;2023-08-06T00:21:29;100271.88;;;17.66;87.69
68075;BME280;54864;52.002;5.468;2023-08-06T00:22:30;100263.88;;;17.66;87.98
68075;BME280;54864;52.002;5.468;2023-08-06T00:23:32;100256.38;;;17.71;88.40
68075;BME280;54864;52.002;5.468;2023-08-06T00:24:36;100266.66;;;17.76;88.31
68075;BME280;54864;52.002;5.468;2023-08-06T00:25:38;100261.78;;;17.81;87.62
68075;BME280;54864;52.002;5.468;2023-08-06T00:26:38;100255.16;;;17.75;87.42
68075;BME280;54864;52.002;5.468;2023-08-06T00:27:44;100258.06;;;17.72;87.90
68075;BME280;54864;52.002;5.468;2023-08-06T00:28:45;100256.13;;;17.74;88.14
68075;BME280;54864;52.002;5.468;2023-08-06T00:29:46;100258.41;;;17.79;87.85
68075;BME280;54864;52.002;5.468;2023-08-06T00:30:52;100252.81;;;17.82;87.85
68075;BME280;54864;52.002;5.468;2023-08-06T00:31:53;100255.47;;;17.82;87.76
68075;BME280;54864;52.002;5.468;2023-08-06T00:32:55;100250.72;;;17.85;88.20
68075;BME280;54864;52.002;5.468;2023-08-06T00:33:56;100253.06;;;17.79;87.65
68075;BME280;54864;52.002;5.468;2023-08-06T00:35:00;100251.38;;;17.78;87.96
68075;BME280;54864;52.002;5.468;2023-08-06T00:36:01;100259.81;;;17.83;88.16
68075;BME280;54864;52.002;5.468;2023-08-06T00:37:03;100251.44;;;17.87;87.79
68075;BME280;54864;52.002;5.468;2023-08-06T00:38:05;100262.22;;;17.86;87.80
68075;BME280;54864;52.002;5.468;2023-08-06T00:39:06;100257.75;;;17.86;87.65
68075;BME280;54864;52.002;5.468;2023-08-06T00:40:08;100258.00;;;17.83;87.02
68075;BME280;54864;52.002;5.468;2023-08-06T00:41:08;100256.31;;;17.82;87.27
68075;BME280;54864;52.002;5.468;2023-08-06T00:42:10;100262.03;;;17.78;87.29
68075;BME280;54864;52.002;5.468;2023-08-06T00:43:15;100257.41;;;17.80;87.94
68075;BME280;54864;52.002;5.468;2023-08-06T00:44:17;100258.00;;;17.83;87.71
68075;BME280;54864;52.002;5.468;2023-08-06T00:45:18;100257.63;;;17.88;87.36
68075;BME280;54864;52.002;5.468;2023-08-06T00:46:19;100260.88;;;17.91;87.28
68075;BME280;54864;52.002;5.468;2023-08-06T00:47:21;100259.75;;;17.94;87.12
68075;BME280;54864;52.002;5.468;2023-08-06T00:48:22;100257.63;;;17.88;86.50
68075;BME280;54864;52.002;5.468;2023-08-06T00:49:24;100253.25;;;17.87;86.05
68075;BME280;54864;52.002;5.468;2023-08-06T00:50:27;100261.38;;;17.85;86.82
68075;BME280;54864;52.002;5.468;2023-08-06T00:51:29;100249.75;;;17.86;86.67
68075;BME280;54864;52.002;5.468;2023-08-06T00:52:33;100247.94;;;17.87;86.86
68075;BME280;54864;52.002;5.468;2023-08-06T00:53:38;100258.00;;;17.83;87.15
68075;BME280;54864;52.002;5.468;2023-08-06T00:54:41;100260.16;;;17.89;87.20
68075;BME280;54864;52.002;5.468;2023-08-06T00:55:43;100257.22;;;17.92;87.47
68075;BME280;54864;52.002;5.468;2023-08-06T00:56:46;100258.06;;;17.93;87.26
68075;BME280;54864;52.002;5.468;2023-08-06T00:57:47;100257.81;;;17.96;87.24
68075;BME280;54864;52.002;5.468;2023-08-06T00:58:52;100248.31;;;18.03;86.75
68075;BME280;54864;52.002;5.468;2023-08-06T00:59:53;100253.06;;;17.99;86.44
68075;BME280;54864;52.002;5.468;2023-08-06T01:00:55;100253.31;;;17.96;86.57
68075;BME280;54864;52.002;5.468;2023-08-06T01:01:56;100246.69;;;17.91;87.04
68075;BME280;54864;52.002;5.468;2023-08-06T01:02:58;100255.41;;;17.93;86.99
68075;BME280;54864;52.002;5.468;2023-08-06T01:03:58;100257.22;;;17.92;87.21
68075;BME280;54864;52.002;5.468;2023-08-06T01:05:04;100253.53;;;17.84;86.90
68075;BME280;54864;52.002;5.468;2023-08-06T01:06:05;100259.81;;;17.83;87.89
68075;BME280;54864;52.002;5.468;2023-08-06T01:07:21;100260.53;;;17.85;87.72
68075;BME280;54864;52.002;5.468;2023-08-06T01:08:31;100256.91;;;17.86;86.93
68075;BME280;54864;52.002;5.468;2023-08-06T01:09:45;100253.97;;;17.89;86.96
68075;BME280;54864;52.002;5.468;2023-08-06T01:10:53;100249.88;;;17.85;87.15
68075;BME280;54864;52.002;5.468;2023-08-06T01:12:05;100242.84;;;17.84;87.71
68075;BME280;54864;52.002;5.468;2023-08-06T01:13:11;100249.03;;;17.84;87.30
68075;BME280;54864;52.002;5.468;2023-08-06T01:14:24;100247.59;;;17.80;87.22
68075;BME280;54864;52.002;5.468;2023-08-06T01:15:32;100250.97;;;17.82;87.31
68075;BME280;54864;52.002;5.468;2023-08-06T01:16:35;100253.91;;;17.79;87.93
68075;BME280;54864;52.002;5.468;2023-08-06T01:17:37;100247.53;;;17.70;87.96
68075;BME280;54864;52.002;5.468;2023-08-06T01:18:39;100249.81;;;17.75;87.99
68075;BME280;54864;52.002;5.468;2023-08-06T01:19:42;100247.84;;;17.77;87.82
68075;BME280;54864;52.002;5.468;2023-08-06T01:20:45;100250.53;;;17.77;88.25
68075;BME280;54864;52.002;5.468;2023-08-06T01:21:46;100250.13;;;17.82;88.80
68075;BME280;54864;52.002;5.468;2023-08-06T01:22:47;100252.66;;;17.83;88.60
68075;BME280;54864;52.002;5.468;2023-08-06T01:23:48;100248.06;;;17.85;88.44
68075;BME280;54864;52.002;5.468;2023-08-06T01:24:53;100246.56;;;17.92;88.19
68075;BME280;54864;52.002;5.468;2023-08-06T01:25:57;100248.63;;;17.89;88.18
68075;BME280;54864;52.002;5.468;2023-08-06T01:27:08;100252.88;;;17.91;87.90
68075;BME280;54864;52.002;5.468;2023-08-06T01:28:20;100249.34;;;17.91;87.42
68075;BME280;54864;52.002;5.468;2023-08-06T01:29:31;100249.03;;;17.84;87.74
68075;BME280;54864;52.002;5.468;2023-08-06T01:30:37;100247.72;;;17.79;87.98
68075;BME280;54864;52.002;5.468;2023-08-06T01:31:43;100248.44;;;17.81;88.17
68075;BME280;54864;52.002;5.468;2023-08-06T01:32:46;100250.00;;;17.83;88.52
68075;BME280;54864;52.002;5.468;2023-08-06T01:33:50;100253.25;;;17.87;88.14
68075;BME280;54864;52.002;5.468;2023-08-06T01:34:54;100251.56;;;17.86;88.20
68075;BME280;54864;52.002;5.468;2023-08-06T01:36:04;100247.66;;;17.90;88.52
68075;BME280;54864;52.002;5.468;2023-08-06T01:37:08;100252.59;;;17.94;87.87
68075;BME280;54864;52.002;5.468;2023-08-06T01:38:10;100255.28;;;17.94;87.59
68075;BME280;54864;52.002;5.468;2023-08-06T01:39:11;100252.88;;;17.91;87.41
68075;BME280;54864;52.002;5.468;2023-08-06T01:40:13;100248.00;;;17.76;87.69
68075;BME280;54864;52.002;5.468;2023-08-06T01:41:14;100251.31;;;17.68;88.23
68075;BME280;54864;52.002;5.468;2023-08-06T01:42:15;100249.97;;;17.62;89.27
68075;BME280;54864;52.002;5.468;2023-08-06T01:43:19;100249.63;;;17.67;89.47
68075;BME280;54864;52.002;5.468;2023-08-06T01:44:21;100251.53;;;17.65;88.93
68075;BME280;54864;52.002;5.468;2023-08-06T01:45:22;100248.63;;;17.68;89.07
68075;BME280;54864;52.002;5.468;2023-08-06T01:46:23;100250.47;;;17.67;89.21
68075;BME280;54864;52.002;5.468;2023-08-06T01:47:24;100254.47;;;17.51;89.61
68075;BME280;54864;52.002;5.468;2023-08-06T01:48:28;100255.56;;;17.48;89.93
68075;BME280;54864;52.002;5.468;2023-08-06T01:49:28;100249.13;;;17.51;90.48
68075;BME280;54864;52.002;5.468;2023-08-06T01:50:30;100254.22;;;17.54;90.06
68075;BME280;54864;52.002;5.468;2023-08-06T01:51:32;100253.75;;;17.49;90.57
68075;BME280;54864;52.002;5.468;2023-08-06T01:52:34;100249.72;;;17.54;90.29
68075;BME280;54864;52.002;5.468;2023-08-06T01:53:38;100249.50;;;17.57;90.11
68075;BME280;54864;52.002;5.468;2023-08-06T01:54:41;100251.06;;;17.60;90.12
68075;BME280;54864;52.002;5.468;2023-08-06T01:55:42;100246.94;;;17.67;90.19
68075;BME280;54864;52.002;5.468;2023-08-06T01:56:48;100251.03;;;17.71;90.21
68075;BME280;54864;52.002;5.468;2023-08-06T01:57:49;100254.44;;;17.73;89.76
68075;BME280;54864;52.002;5.468;2023-08-06T01:58:51;100243.38;;;17.78;89.06
68075;BME280;54864;52.002;5.468;2023-08-06T01:59:52;100249.56;;;17.78;88.51
68075;BME280;54864;52.002;5.468;2023-08-06T02:00:53;100255.03;;;17.65;89.23
68075;BME280;54864;52.002;5.468;2023-08-06T02:01:54;100253.13;;;17.67;89.42
68075;BME280;54864;52.002;5.468;2023-08-06T02:02:56;100257.22;;;17.71;89.96
68075;BME280;54864;52.002;5.468;2023-08-06T02:03:59;100256.38;;;17.71;89.88
68075;BME280;54864;52.002;5.468;2023-08-06T02:05:01;100247.28;;;17.73;89.64
68075;BME280;54864;52.002;5.468;2023-08-06T02:06:01;100251.63;;;17.74;89.60
68075;BME280;54864;52.002;5.468;2023-08-06T02:07:06;100248.56;;;17.79;89.44
68075;BME280;54864;52.002;5.468;2023-08-06T02:08:07;100251.50;;;17.76;89.11
68075;BME280;54864;52.002;5.468;2023-08-06T02:09:09;100251.63;;;17.74;89.21
68075;BME280;54864;52.002;5.468;2023-08-06T02:10:12;100249.81;;;17.75;89.21
68075;BME280;54864;52.002;5.468;2023-08-06T02:11:14;100246.56;;;17.71;89.04
68075;BME280;54864;52.002;5.468;2023-08-06T02:12:15;100244.28;;;17.67;89.99
68075;BME280;54864;52.002;5.468;2023-08-06T02:13:16;100249.22;;;17.71;89.43
68075;BME280;54864;52.002;5.468;2023-08-06T02:14:17;100252.16;;;17.57;89.74
68075;BME280;54864;52.002;5.468;2023-08-06T02:15:19;100254.59;;;17.49;90.13
68075;BME280;54864;52.002;5.468;2023-08-06T02:16:19;100253.63;;;17.50;90.82
68075;BME280;54864;52.002;5.468;2023-08-06T02:17:21;100254.59;;;17.49;90.82
68075;BME280;54864;52.002;5.468;2023-08-06T02:18:22;100247.91;;;17.55;90.86
68075;BME280;54864;52.002;5.468;2023-08-06T02:19:23;100251.53;;;17.54;90.66
68075;BME280;54864;52.002;5.468;2023-08-06T02:20:24;100251.41;;;17.55;90.60
68075;BME280;54864;52.002;5.468;2023-08-06T02:21:25;100252.53;;;17.53;90.88
68075;BME280;54864;52.002;5.468;2023-08-06T02:22:28;100254.97;;;17.44;91.18
68075;BME280;54864;52.002;5.468;2023-08-06T02:23:29;100250.13;;;17.50;91.50
68075;BME280;54864;52.002;5.468;2023-08-06T02:24:31;100249.00;;;17.52;91.70
68075;BME280;54864;52.002;5.468;2023-08-06T02:25:31;100249.72;;;17.54;91.65
68075;BME280;54864;52.002;5.468;2023-08-06T02:26:33;100244.31;;;17.56;91.61
68075;BME280;54864;52.002;5.468;2023-08-06T02:27:34;100246.31;;;17.63;91.52
68075;BME280;54864;52.002;5.468;2023-08-06T02:28:35;100249.47;;;17.68;90.35
68075;BME280;54864;52.002;5.468;2023-08-06T02:29:36;100247.03;;;17.65;90.46
68075;BME280;54864;52.002;5.468;2023-08-06T02:30:38;100249.63;;;17.67;90.56
68075;BME280;54864;52.002;5.468;2023-08-06T02:31:38;100241.34;;;17.70;90.47
68075;BME280;54864;52.002;5.468;2023-08-06T02:32:40;100247.41;;;17.72;90.31
68075;BME280;54864;52.002;5.468;2023-08-06T02:33:41;100238.69;;;17.70;90.51
68075;BME280;54864;52.002;5.468;2023-08-06T02:34:42;100239.53;;;17.70;90.30
68075;BME280;54864;52.002;5.468;2023-08-06T02:35:43;100247.41;;;17.72;90.61
68075;BME280;54864;52.002;5.468;2023-08-06T02:36:44;100245.84;;;17.69;90.65
68075;BME280;54864;52.002;5.468;2023-08-06T02:37:47;100250.91;;;17.72;90.37
68075;BME280;54864;52.002;5.468;2023-08-06T02:38:48;100242.69;;;17.64;90.89
68075;BME280;54864;52.002;5.468;2023-08-06T02:39:50;100240.97;;;17.74;90.24
68075;BME280;54864;52.002;5.468;2023-08-06T02:40:50;100239.16;;;17.75;89.74
68075;BME280;54864;52.002;5.468;2023-08-06T02:41:51;100249.47;;;17.68;90.12
68075;BME280;54864;52.002;5.468;2023-08-06T02:42:56;100243.19;;;17.69;90.48
68075;BME280;54864;52.002;5.468;2023-08-06T02:43:57;100243.78;;;17.62;90.14
68075;BME280;54864;52.002;5.468;2023-08-06T02:44:58;100238.09;;;17.55;90.65
68075;BME280;54864;52.002;5.468;2023-08-06T02:45:59;100245.38;;;17.53;91.11
68075;BME280;54864;52.002;5.468;2023-08-06T02:47:02;100242.72;;;17.53;91.11
68075;BME280;54864;52.002;5.468;2023-08-06T02:48:03;100240.75;;;17.55;91.38
68075;BME280;54864;52.002;5.468;2023-08-06T02:49:04;100240.88;;;17.54;91.64
68075;BME280;54864;52.002;5.468;2023-08-06T02:50:07;100236.19;;;17.57;91.42
68075;BME280;54864;52.002;5.468;2023-08-06T02:51:09;100243.19;;;17.58;91.48
68075;BME280;54864;52.002;5.468;2023-08-06T02:52:09;100243.91;;;17.60;91.75
68075;BME280;54864;52.002;5.468;2023-08-06T02:53:13;100241.25;;;17.60;91.30
68075;BME280;54864;52.002;5.468;2023-08-06T02:54:14;100239.56;;;17.59;91.19
68075;BME280;54864;52.002;5.468;2023-08-06T02:55:21;100228.91;;;17.48;91.80
68075;BME280;54864;52.002;5.468;2023-08-06T02:56:22;100230.63;;;17.49;92.17
68075;BME280;54864;52.002;5.468;2023-08-06T02:57:24;100234.13;;;17.50;91.57
68075;BME280;54864;52.002;5.468;2023-08-06T02:58:24;100235.56;;;17.54;91.61
68075;BME280;54864;52.002;5.468;2023-08-06T02:59:25;100225.75;;;17.54;91.47
68075;BME280;54864;52.002;5.468;2023-08-06T03:00:27;100227.75;;;17.41;92.03
68075;BME280;54864;52.002;5.468;2023-08-06T03:01:28;100227.94;;;17.49;91.92
68075;BME280;54864;52.002;5.468;2023-08-06T03:02:30;100232.03;;;17.53;92.05
68075;BME280;54864;52.002;5.468;2023-08-06T03:03:31;100228.31;;;17.56;92.07
68075;BME280;54864;52.002;5.468;2023-08-06T03:04:32;100228.06;;;17.59;91.44
68075;BME280;54864;52.002;5.468;2023-08-06T03:05:34;100226.09;;;17.61;91.26
68075;BME280;54864;52.002;5.468;2023-08-06T03:06:34;100225.00;;;17.63;91.45
68075;BME280;54864;52.002;5.468;2023-08-06T03:07:36;100227.44;;;17.66;90.99
68075;BME280;54864;52.002;5.468;2023-08-06T03:08:39;100227.19;;;17.69;90.83
68075;BME280;54864;52.002;5.468;2023-08-06T03:09:41;100230.69;;;17.70;90.61
68075;BME280;54864;52.002;5.468;2023-08-06T03:10:42;100227.19;;;17.69;90.48
68075;BME280;54864;52.002;5.468;2023-08-06T03:11:43;100231.41;;;17.72;90.67
68075;BME280;54864;52.002;5.468;2023-08-06T03:12:44;100227.31;;;17.68;90.76
68075;BME280;54864;52.002;5.468;2023-08-06T03:13:46;100232.63;;;17.68;91.03
68075;BME280;54864;52.002;5.468;2023-08-06T03:14:47;100222.69;;;17.70;90.69
68075;BME280;54864;52.002;5.468;2023-08-06T03:15:53;100225.50;;;17.68;91.00
68075;BME280;54864;52.002;5.468;2023-08-06T03:16:54;100226.91;;;17.72;90.94
68075;BME280;54864;52.002;5.468;2023-08-06T03:17:56;100222.88;;;17.78;90.48
68075;BME280;54864;52.002;5.468;2023-08-06T03:18:56;100223.28;;;17.73;90.52
68075;BME280;54864;52.002;5.468;2023-08-06T03:20:01;100222.75;;;17.80;90.03
68075;BME280;54864;52.002;5.468;2023-08-06T03:21:01;100226.41;;;17.79;89.84
68075;BME280;54864;52.002;5.468;2023-08-06T03:22:03;100227.97;;;17.81;90.40
68075;BME280;54864;52.002;5.468;2023-08-06T03:23:04;100227.81;;;17.83;89.88
68075;BME280;54864;52.002;5.468;2023-08-06T03:24:07;100224.56;;;17.79;89.58
68075;BME280;54864;52.002;5.468;2023-08-06T03:25:11;100229.31;;;17.76;89.67
68075;BME280;54864;52.002;5.468;2023-08-06T03:26:15;100222.31;;;17.74;90.11
68075;BME280;54864;52.002;5.468;2023-08-06T03:27:16;100222.16;;;17.76;90.17
68075;BME280;54864;52.002;5.468;2023-08-06T03:28:17;100236.09;;;17.80;89.75
68075;BME280;54864;52.002;5.468;2023-08-06T03:29:18;100227.13;;;17.81;89.63
68075;BME280;54864;52.002;5.468;2023-08-06T03:30:21;100223.72;;;17.79;89.79
68075;BME280;54864;52.002;5.468;2023-08-06T03:31:22;100226.41;;;17.79;89.86
68075;BME280;54864;52.002;5.468;2023-08-06T03:32:23;100235.50;;;17.76;89.66
68075;BME280;54864;52.002;5.468;2023-08-06T03:33:24;100230.75;;;17.80;89.57
68075;BME280;54864;52.002;5.468;2023-08-06T03:34:25;100226.19;;;17.70;89.87
68075;BME280;54864;52.002;5.468;2023-08-06T03:35:26;100236.75;;;17.72;89.93
68075;BME280;54864;52.002;5.468;2023-08-06T03:36:27;100231.88;;;17.77;89.87
68075;BME280;54864;52.002;5.468;2023-08-06T03:37:29;100226.91;;;17.72;89.98
68075;BME280;54864;52.002;5.468;2023-08-06T03:38:35;100230.31;;;17.74;90.20
68075;BME280;54864;52.002;5.468;2023-08-06T03:39:39;100223.28;;;17.73;90.35
68075;BME280;54864;52.002;5.468;2023-08-06T03:40:46;100227.19;;;17.69;90.33
68075;BME280;54864;52.002;5.468;2023-08-06T03:41:48;100235.50;;;17.76;90.42
68075;BME280;54864;52.002;5.468;2023-08-06T03:42:48;100223.22;;;17.85;89.55
68075;BME280;54864;52.002;5.468;2023-08-06T03:43:49;100227.69;;;17.84;89.61
68075;BME280;54864;52.002;5.468;2023-08-06T03:44:51;100237.97;;;17.89;89.35
68075;BME280;54864;52.002;5.468;2023-08-06T03:45:51;100226.91;;;17.93;88.94
68075;BME280;54864;52.002;5.468;2023-08-06T03:46:53;100225.63;;;17.88;88.87
68075;BME280;54864;52.002;5.468;2023-08-06T03:47:54;100227.16;;;17.90;88.85
68075;BME280;54864;52.002;5.468;2023-08-06T03:48:56;100232.50;;;17.90;88.98
68075;BME280;54864;52.002;5.468;2023-08-06T03:49:57;100232.38;;;17.92;88.84
68075;BME280;54864;52.002;5.468;2023-08-06T03:50:58;100236.28;;;17.88;89.11
68075;BME280;54864;52.002;5.468;2023-08-06T03:52:05;100232.25;;;17.93;88.96
68075;BME280;54864;52.002;5.468;2023-08-06T03:53:10;100231.53;;;17.91;88.87
68075;BME280;54864;52.002;5.468;2023-08-06T03:54:10;100238.69;;;17.91;89.07
68075;BME280;54864;52.002;5.468;2023-08-06T03:55:13;100239.41;;;17.93;89.02
68075;BME280;54864;52.002;5.468;2023-08-06T03:56:14;100231.13;;;17.96;89.06
68075;BME280;54864;52.002;5.468;2023-08-06T03:57:16;100231.13;;;17.96;88.72
68075;BME280;54864;52.002;5.468;2023-08-06T03:58:17;100236.72;;;17.93;88.84
68075;BME280;54864;52.002;5.468;2023-08-06T03:59:19;100235.38;;;17.78;89.00
68075;BME280;54864;52.002;5.468;2023-08-06T04:00:19;100229.59;;;17.72;89.67
68075;BME280;54864;52.002;5.468;2023-08-06T04:01:21;100233.03;;;17.84;89.37
68075;BME280;54864;52.002;5.468;2023-08-06T04:02:22;100231.78;;;17.88;89.17
68075;BME280;54864;52.002;5.468;2023-08-06T04:03:23;100239.53;;;17.91;88.73
68075;BME280;54864;52.002;5.468;2023-08-06T04:04:24;100233.22;;;17.92;88.39
68075;BME280;54864;52.002;5.468;2023-08-06T04:05:26;100232.50;;;17.90;88.62
68075;BME280;54864;52.002;5.468;2023-08-06T04:06:26;100227.16;;;17.90;88.52
68075;BME280;54864;52.002;5.468;2023-08-06T04:07:27;100225.03;;;17.84;88.45
68075;BME280;54864;52.002;5.468;2023-08-06T04:08:29;100229.31;;;17.76;89.55
68075;BME280;54864;52.002;5.468;2023-08-06T04:09:29;100226.00;;;17.83;89.13
68075;BME280;54864;52.002;5.468;2023-08-06T04:10:32;100224.19;;;17.84;89.06
68075;BME280;54864;52.002;5.468;2023-08-06T04:11:33;100229.84;;;17.90;88.64
68075;BME280;54864;52.002;5.468;2023-08-06T04:12:35;100223.53;;;17.91;88.67
68075;BME280;54864;52.002;5.468;2023-08-06T04:13:36;100223.16;;;17.75;89.11
68075;BME280;54864;52.002;5.468;2023-08-06T04:14:38;100223.28;;;17.73;89.81
68075;BME280;54864;52.002;5.468;2023-08-06T04:15:39;100220.53;;;17.85;89.44
68075;BME280;54864;52.002;5.468;2023-08-06T04:16:43;100221.97;;;17.89;89.21
68075;BME280;54864;52.002;5.468;2023-08-06T04:17:44;100223.66;;;17.90;89.16
68075;BME280;54864;52.002;5.468;2023-08-06T04:18:46;100224.25;;;17.93;88.98
68075;BME280;54864;52.002;5.468;2023-08-06T04:19:51;100232.25;;;17.93;88.94
68075;BME280;54864;52.002;5.468;2023-08-06T04:20:53;100232.81;;;17.97;88.80
68075;BME280;54864;52.002;5.468;2023-08-06T04:21:58;100225.53;;;17.99;88.67
68075;BME280;54864;52.002;5.468;2023-08-06T04:23:06;100235.94;;;18.02;88.54
68075;BME280;54864;52.002;5.468;2023-08-06T04:24:06;100229.38;;;18.06;87.99
68075;BME280;54864;52.002;5.468;2023-08-06T04:25:09;100231.06;;;18.07;87.95
68075;BME280;54864;52.002;5.468;2023-08-06T04:26:11;100226.56;;;18.08;87.88
68075;BME280;54864;52.002;5.468;2023-08-06T04:27:14;100240.13;;;17.95;88.39
68075;BME280;54864;52.002;5.468;2023-08-06T04:28:15;100235.75;;;17.94;88.46
68075;BME280;54864;52.002;5.468;2023-08-06T04:29:15;100236.28;;;17.88;89.24
68075;BME280;54864;52.002;5.468;2023-08-06T04:30:17;100242.53;;;17.98;88.88
68075;BME280;54864;52.002;5.468;2023-08-06T04:31:21;100237.38;;;18.06;88.72
68075;BME280;54864;52.002;5.468;2023-08-06T04:32:23;100242.44;;;18.09;88.20
68075;BME280;54864;52.002;5.468;2023-08-06T04:33:25;100239.66;;;18.11;88.01
68075;BME280;54864;52.002;5.468;2023-08-06T04:34:26;100236.25;;;18.09;88.10
68075;BME280;54864;52.002;5.468;2023-08-06T04:35:27;100236.13;;;18.10;88.07
68075;BME280;54864;52.002;5.468;2023-08-06T04:36:29;100240.34;;;18.13;87.76
68075;BME280;54864;52.002;5.468;2023-08-06T04:37:29;100243.75;;;18.15;87.14
68075;BME280;54864;52.002;5.468;2023-08-06T04:38:31;100247.34;;;18.04;87.30
68075;BME280;54864;52.002;5.468;2023-08-06T04:39:32;100249.72;;;18.07;87.39
68075;BME280;54864;52.002;5.468;2023-08-06T04:40:35;100253.13;;;18.09;87.14
68075;BME280;54864;52.002;5.468;2023-08-06T04:41:40;100251.16;;;18.11;87.40
68075;BME280;54864;52.002;5.468;2023-08-06T04:42:42;100241.19;;;18.13;87.34
68075;BME280;54864;52.002;5.468;2023-08-06T04:43:42;100254.09;;;18.08;87.79
68075;BME280;54864;52.002;5.468;2023-08-06T04:44:44;100253.50;;;18.04;88.24
68075;BME280;54864;52.002;5.468;2023-08-06T04:45:49;100260.00;;;18.12;87.96
68075;BME280;54864;52.002;5.468;2023-08-06T04:46:50;100254.16;;;18.18;87.54
68075;BME280;54864;52.002;5.468;2023-08-06T04:47:52;100254.00;;;18.19;87.39
68075;BME280;54864;52.002;5.468;2023-08-06T04:48:52;100247.69;;;18.20;87.39
68075;BME280;54864;52.002;5.468;2023-08-06T04:49:54;100250.31;;;18.11;87.58
68075;BME280;54864;52.002;5.468;2023-08-06T04:51:04;100250.53;;;17.98;88.15
68075;BME280;54864;52.002;5.468;2023-08-06T04:52:12;100255.06;;;18.07;88.00
68075;BME280;54864;52.002;5.468;2023-08-06T04:53:13;100255.38;;;18.14;87.68
68075;BME280;54864;52.002;5.468;2023-08-06T04:54:15;100258.72;;;18.06;87.71
68075;BME280;54864;52.002;5.468;2023-08-06T04:55:16;100254.81;;;18.10;87.84
68075;BME280;54864;52.002;5.468;2023-08-06T04:56:18;100250.50;;;18.19;87.66
68075;BME280;54864;52.002;5.468;2023-08-06T04:57:20;100252.31;;;18.18;87.39
68075;BME280;54864;52.002;5.468;2023-08-06T04:58:21;100250.38;;;17.99;88.11
68075;BME280;54864;52.002;5.468;2023-08-06T04:59:22;100251.44;;;18.08;88.40
68075;BME280;54864;52.002;5.468;2023-08-06T05:00:24;100252.47;;;18.17;88.25
68075;BME280;54864;52.002;5.468;2023-08-06T05:01:24;100252.94;;;18.22;88.22
68075;BME280;54864;52.002;5.468;2023-08-06T05:02:26;100252.53;;;18.26;87.90
68075;BME280;54864;52.002;5.468;2023-08-06T05:03:27;100254.94;;;18.29;87.40
68075;BME280;54864;52.002;5.468;2023-08-06T05:04:30;100258.59;;;18.28;87.25
68075;BME280;54864;52.002;5.468;2023-08-06T05:05:35;100257.88;;;18.26;87.75
68075;BME280;54864;52.002;5.468;2023-08-06T05:06:36;100257.47;;;18.31;87.40
68075;BME280;54864;52.002;5.468;2023-08-06T05:07:41;100264.63;;;18.30;86.84
68075;BME280;54864;52.002;5.468;2023-08-06T05:08:43;100262.56;;;18.34;86.73
68075;BME280;54864;52.002;5.468;2023-08-06T05:09:46;100262.41;;;18.35;87.17
68075;BME280;54864;52.002;5.468;2023-08-06T05:10:49;100262.28;;;18.37;87.12
68075;BME280;54864;52.002;5.468;2023-08-06T05:11:51;100258.50;;;18.40;86.90
68075;BME280;54864;52.002;5.468;2023-08-06T05:12:53;100272.56;;;18.42;86.95
68075;BME280;54864;52.002;5.468;2023-08-06T05:13:55;100264.16;;;18.46;86.79
68075;BME280;54864;52.002;5.468;2023-08-06T05:14:56;100272.03;;;18.48;86.60
68075;BME280;54864;52.002;5.468;2023-08-06T05:16:05;100272.88;;;18.48;86.62
68075;BME280;54864;52.002;5.468;2023-08-06T05:17:09;100268.88;;;18.33;86.74
68075;BME280;54864;52.002;5.468;2023-08-06T05:18:16;100279.16;;;18.37;87.12
68075;BME280;54864;52.002;5.468;2023-08-06T05:19:17;100279.84;;;18.40;86.58
68075;BME280;54864;52.002;5.468;2023-08-06T05:20:19;100276.47;;;18.37;86.69
68075;BME280;54864;52.002;5.468;2023-08-06T05:21:23;100282.03;;;18.25;87.24
68075;BME280;54864;52.002;5.468;2023-08-06T05:22:24;100278.28;;;18.37;86.77
68075;BME280;54864;52.002;5.468;2023-08-06T05:23:26;100281.28;;;18.44;86.63
68075;BME280;54864;52.002;5.468;2023-08-06T05:24:29;100287.28;;;18.36;86.78
68075;BME280;54864;52.002;5.468;2023-08-06T05:25:34;100288.53;;;18.32;87.57
68075;BME280;54864;52.002;5.468;2023-08-06T05:26:38;100285.59;;;18.35;87.50